Darstellungsparameter: Aktuell verwendete Einstellungen:
Skalierung der Graphiken ... ?
xyx+y,   Skalierungsfaktor:      Skalierung: Modus: x, Faktor: 1
Darstellungszeitraum ... ?
Vom - - bis: - -   Zeitraum: 06.03.2019 - 06.03.2019
Min/Max/Avg-Anzeige ... ?
Zeige MMA aktuell
Zeige MMA Monat
Zeige MMA alles
Zeige --A aktuell
Zeige --A Monat
Zeige --A alles
Keine MMA-Anzeige
MMA:
Keine MMA-Graphiken
MMA-Basis: 06.03.2019 - 06.03.2019
Quicknavigation für Darstellung... ?
Tage:      1T, 2T, 3T, 5T -1T -2T -3T -5T +1T +2T +3T +5T
Wochen: 1W, 2W, 3W -1W -2W -3W +1W +2W +3W
Monate: 1M, 3M, 6M -1M -3M -6M +1M +3M +6M
Jahre:    1J, 3J, 5J, 10J -1J -3J -5J -10J +1J +3J +5J +10J
Nutze für die Darstellung ... ?
Originaldaten oder Mittelwerte auf ...
Stundenbasis Tagesbasis Wochenbasis
Monatsbasis Jahresbasis      Datenbasis: Original-Daten
Darstellen als:
Statistik (Auto) Statistik J:M      Darstellung:
Zur Graphik,    zurück zur Übersicht aller Sensoren.
 
Tabellarische Datenbersicht: ?
 
Sensor: Nr:Datum:Temp:Feuchte:Taupunkt:
Aussen-T/F 1 06-03-2019 00:00:00 5.5 C 92 % 4.31 C
2 06-03-2019 00:05:00 5.5 C 92 % 4.31 C
3 06-03-2019 00:10:00 5.5 C 92 % 4.31 C
4 06-03-2019 00:15:00 5.6 C 92 % 4.41 C
5 06-03-2019 00:20:00 5.6 C 92 % 4.41 C
6 06-03-2019 00:25:00 5.6 C 92 % 4.41 C
7 06-03-2019 00:30:00 5.7 C 91 % 4.35 C
8 06-03-2019 00:35:00 5.7 C 91 % 4.35 C
9 06-03-2019 00:40:00 5.7 C 91 % 4.35 C
10 06-03-2019 00:45:00 5.7 C 91 % 4.35 C
11 06-03-2019 00:50:00 5.8 C 92 % 4.6 C
12 06-03-2019 00:55:00 5.9 C 92 % 4.7 C
13 06-03-2019 01:00:00 5.9 C 92 % 4.7 C
14 06-03-2019 01:05:00 6.1 C 92 % 4.9 C
15 06-03-2019 01:10:00 6.1 C 92 % 4.9 C
16 06-03-2019 01:15:00 6.1 C 91 % 4.74 C
17 06-03-2019 01:20:00 6.1 C 91 % 4.74 C
18 06-03-2019 01:25:00 6.1 C 91 % 4.74 C
19 06-03-2019 01:30:00 6.1 C 91 % 4.74 C
20 06-03-2019 01:35:00 6.1 C 91 % 4.74 C
21 06-03-2019 01:40:00 6.1 C 92 % 4.9 C
22 06-03-2019 01:45:00 6.2 C 92 % 5 C
23 06-03-2019 01:50:00 6.4 C 92 % 5.2 C
24 06-03-2019 01:55:00 6.5 C 92 % 5.3 C
25 06-03-2019 02:00:00 6.7 C 91 % 5.34 C
Sensor: Nr:Datum:Temp:Feuchte:Taupunkt:
Aussen-T/F 26 06-03-2019 02:05:00 6.8 C 91 % 5.44 C
27 06-03-2019 02:10:00 6.8 C 91 % 5.44 C
28 06-03-2019 02:15:00 6.9 C 90 % 5.38 C
29 06-03-2019 02:20:00 7 C 90 % 5.48 C
30 06-03-2019 02:25:00 7.1 C 90 % 5.57 C
31 06-03-2019 02:30:00 7.1 C 90 % 5.57 C
32 06-03-2019 02:35:00 7.2 C 89 % 5.51 C
33 06-03-2019 02:40:00 7.2 C 89 % 5.51 C
34 06-03-2019 02:45:00 7.2 C 89 % 5.51 C
35 06-03-2019 02:50:00 7.2 C 89 % 5.51 C
36 06-03-2019 02:55:00 7.2 C 89 % 5.51 C
37 06-03-2019 03:00:00 7.2 C 89 % 5.51 C
38 06-03-2019 03:05:00 7.2 C 89 % 5.51 C
39 06-03-2019 03:10:00 7.2 C 89 % 5.51 C
40 06-03-2019 03:15:00 7.1 C 89 % 5.41 C
41 06-03-2019 03:20:00 7.1 C 89 % 5.41 C
42 06-03-2019 03:25:00 7 C 89 % 5.31 C
43 06-03-2019 03:30:00 6.9 C 90 % 5.38 C
44 06-03-2019 03:35:00 6.9 C 90 % 5.38 C
45 06-03-2019 03:40:00 6.9 C 90 % 5.38 C
46 06-03-2019 03:45:00 6.9 C 90 % 5.38 C
47 06-03-2019 03:50:00 6.8 C 90 % 5.28 C
48 06-03-2019 03:55:00 6.8 C 90 % 5.28 C
49 06-03-2019 04:00:00 6.8 C 91 % 5.44 C
50 06-03-2019 04:05:00 6.8 C 91 % 5.44 C
Sensor: Nr:Datum:Temp:Feuchte:Taupunkt:
Aussen-T/F 51 06-03-2019 04:10:00 6.8 C 91 % 5.44 C
52 06-03-2019 04:15:00 6.8 C 91 % 5.44 C
53 06-03-2019 04:20:00 6.7 C 91 % 5.34 C
54 06-03-2019 04:25:00 6.7 C 91 % 5.34 C
55 06-03-2019 04:30:00 6.6 C 91 % 5.24 C
56 06-03-2019 04:35:00 6.7 C 91 % 5.34 C
57 06-03-2019 04:40:00 6.8 C 92 % 5.59 C
58 06-03-2019 04:45:00 6.9 C 91 % 5.54 C
59 06-03-2019 04:50:00 7.1 C 91 % 5.73 C
60 06-03-2019 04:55:00 7.1 C 90 % 5.57 C
61 06-03-2019 05:00:00 7.2 C 90 % 5.67 C
62 06-03-2019 05:05:00 7.2 C 90 % 5.67 C
63 06-03-2019 05:10:00 7.3 C 90 % 5.77 C
64 06-03-2019 05:15:00 7.3 C 89 % 5.61 C
65 06-03-2019 05:20:00 7.3 C 89 % 5.61 C
66 06-03-2019 05:25:00 7.3 C 89 % 5.61 C
67 06-03-2019 05:30:00 7.2 C 89 % 5.51 C
68 06-03-2019 05:35:00 7.2 C 89 % 5.51 C
69 06-03-2019 05:40:00 7.1 C 89 % 5.41 C
70 06-03-2019 05:45:00 7.1 C 89 % 5.41 C
71 06-03-2019 05:50:00 7 C 89 % 5.31 C
72 06-03-2019 05:55:00 6.9 C 89 % 5.22 C
73 06-03-2019 06:00:00 6.8 C 89 % 5.12 C
74 06-03-2019 06:05:00 6.8 C 90 % 5.28 C
75 06-03-2019 06:10:00 6.8 C 90 % 5.28 C
Sensor: Nr:Datum:Temp:Feuchte:Taupunkt:
Aussen-T/F 76 06-03-2019 06:15:00 6.8 C 90 % 5.28 C
77 06-03-2019 06:20:00 6.7 C 89 % 5.02 C
78 06-03-2019 06:25:00 6.6 C 89 % 4.92 C
79 06-03-2019 06:30:00 6.4 C 89 % 4.72 C
80 06-03-2019 06:35:00 6.2 C 89 % 4.53 C
81 06-03-2019 06:40:00 6 C 89 % 4.33 C
82 06-03-2019 06:45:00 5.9 C 90 % 4.39 C
83 06-03-2019 06:50:00 5.9 C 91 % 4.55 C
84 06-03-2019 06:55:00 6 C 91 % 4.65 C
85 06-03-2019 07:00:00 5.9 C 90 % 4.39 C
86 06-03-2019 07:05:00 5.8 C 90 % 4.29 C
87 06-03-2019 07:10:00 5.6 C 90 % 4.09 C
88 06-03-2019 07:15:00 5.4 C 90 % 3.89 C
89 06-03-2019 07:20:00 5.4 C 91 % 4.05 C
90 06-03-2019 07:25:00 5.3 C 91 % 3.95 C
91 06-03-2019 07:30:00 5.3 C 92 % 4.11 C
92 06-03-2019 07:35:00 5.3 C 92 % 4.11 C
93 06-03-2019 07:40:00 5.3 C 92 % 4.11 C
94 06-03-2019 07:45:00 5.3 C 92 % 4.11 C
95 06-03-2019 07:50:00 5.3 C 92 % 4.11 C
96 06-03-2019 07:55:00 5.4 C 93 % 4.36 C
97 06-03-2019 08:00:00 5.4 C 93 % 4.36 C
98 06-03-2019 08:05:00 5.6 C 93 % 4.56 C
99 06-03-2019 08:10:00 5.8 C 93 % 4.76 C
100 06-03-2019 08:15:00 5.9 C 93 % 4.86 C
Sensor: Nr:Datum:Temp:Feuchte:Taupunkt:
Aussen-T/F 101 06-03-2019 08:20:00 6.1 C 93 % 5.06 C
102 06-03-2019 08:25:00 6.3 C 92 % 5.1 C
103 06-03-2019 08:30:00 6.5 C 91 % 5.14 C
104 06-03-2019 08:35:00 6.7 C 91 % 5.34 C
105 06-03-2019 08:40:00 6.9 C 90 % 5.38 C
106 06-03-2019 08:45:00 7.2 C 88 % 5.35 C
107 06-03-2019 08:50:00 7.3 C 88 % 5.45 C
108 06-03-2019 08:55:00 7.5 C 87 % 5.48 C
109 06-03-2019 09:00:00 7.6 C 86 % 5.41 C
110 06-03-2019 09:05:00 7.7 C 86 % 5.51 C
111 06-03-2019 09:10:00 7.8 C 86 % 5.61 C
112 06-03-2019 09:15:00 7.9 C 85 % 5.54 C
113 06-03-2019 09:20:00 8 C 85 % 5.64 C
114 06-03-2019 09:25:00 8.1 C 85 % 5.73 C
115 06-03-2019 09:30:00 8.2 C 84 % 5.66 C
116 06-03-2019 09:35:00 8.3 C 84 % 5.76 C
117 06-03-2019 09:40:00 8.4 C 83 % 5.69 C
118 06-03-2019 09:45:00 8.5 C 83 % 5.78 C
119 06-03-2019 09:50:00 8.6 C 83 % 5.88 C
120 06-03-2019 09:55:00 8.8 C 82 % 5.9 C
121 06-03-2019 10:00:00 8.9 C 82 % 6 C
122 06-03-2019 10:05:00 9.2 C 81 % 6.11 C
123 06-03-2019 10:10:00 9.3 C 80 % 6.03 C
124 06-03-2019 10:15:00 9.6 C 79 % 6.14 C
125 06-03-2019 10:20:00 9.7 C 78 % 6.06 C
Sensor: Nr:Datum:Temp:Feuchte:Taupunkt:
Aussen-T/F 126 06-03-2019 10:25:00 9.9 C 77 % 6.06 C
127 06-03-2019 10:30:00 10.2 C 76 % 6.16 C
128 06-03-2019 10:35:00 10.4 C 73 % 5.78 C
129 06-03-2019 10:40:00 10.6 C 73 % 5.97 C
130 06-03-2019 10:45:00 10.7 C 73 % 6.07 C
131 06-03-2019 10:50:00 10.8 C 72 % 5.96 C
132 06-03-2019 10:55:00 10.8 C 72 % 5.96 C
133 06-03-2019 11:00:00 10.9 C 71 % 5.86 C
134 06-03-2019 11:05:00 11.1 C 70 % 5.84 C
135 06-03-2019 11:10:00 11.3 C 69 % 5.83 C
136 06-03-2019 11:15:00 11.6 C 68 % 5.9 C
137 06-03-2019 11:20:00 11.8 C 67 % 5.88 C
138 06-03-2019 11:25:00 12.1 C 66 % 5.95 C
139 06-03-2019 11:30:00 12.4 C 65 % 6.01 C
140 06-03-2019 11:35:00 12.7 C 64 % 6.07 C
141 06-03-2019 11:40:00 13 C 62 % 5.9 C
142 06-03-2019 11:45:00 13.3 C 61 % 5.95 C
143 06-03-2019 11:50:00 13.5 C 62 % 6.37 C
144 06-03-2019 11:55:00 13.6 C 60 % 5.99 C
145 06-03-2019 12:00:00 13.6 C 59 % 5.75 C
146 06-03-2019 12:05:00 13.5 C 58 % 5.41 C
147 06-03-2019 12:10:00 13.4 C 59 % 5.56 C
148 06-03-2019 12:15:00 13.4 C 59 % 5.56 C
149 06-03-2019 12:20:00 13.3 C 58 % 5.22 C
150 06-03-2019 12:25:00 13.4 C 60 % 5.8 C
Sensor: Nr:Datum:Temp:Feuchte:Taupunkt:
Aussen-T/F 151 06-03-2019 12:30:00 13.3 C 58 % 5.22 C
152 06-03-2019 12:35:00 13.2 C 59 % 5.37 C
153 06-03-2019 12:40:00 13.2 C 59 % 5.37 C
154 06-03-2019 12:45:00 13.2 C 59 % 5.37 C
155 06-03-2019 12:50:00 13.1 C 61 % 5.76 C
156 06-03-2019 12:55:00 13.2 C 62 % 6.09 C
157 06-03-2019 13:00:00 13.2 C 61 % 5.85 C
158 06-03-2019 13:05:00 13.2 C 59 % 5.37 C
159 06-03-2019 13:10:00 13.3 C 60 % 5.71 C
160 06-03-2019 13:15:00 13.3 C 63 % 6.41 C
161 06-03-2019 13:20:00 13.4 C 61 % 6.04 C
162 06-03-2019 13:25:00 13.4 C 60 % 5.8 C
163 06-03-2019 13:30:00 13.4 C 61 % 6.04 C
164 06-03-2019 13:35:00 13.4 C 60 % 5.8 C
165 06-03-2019 13:40:00 13.4 C 62 % 6.28 C
166 06-03-2019 13:45:00 13.4 C 60 % 5.8 C
167 06-03-2019 13:50:00 13.5 C 62 % 6.37 C
168 06-03-2019 13:55:00 13.6 C 63 % 6.7 C
169 06-03-2019 14:00:00 13.6 C 63 % 6.7 C
170 06-03-2019 14:05:00 13.6 C 61 % 6.23 C
171 06-03-2019 14:10:00 13.6 C 62 % 6.47 C
172 06-03-2019 14:15:00 13.5 C 62 % 6.37 C
173 06-03-2019 14:20:00 13.5 C 62 % 6.37 C
174 06-03-2019 14:25:00 13.5 C 62 % 6.37 C
175 06-03-2019 14:30:00 13.5 C 62 % 6.37 C
Sensor: Nr:Datum:Temp:Feuchte:Taupunkt:
Aussen-T/F 176 06-03-2019 14:35:00 13.6 C 63 % 6.7 C
177 06-03-2019 14:40:00 13.8 C 62 % 6.65 C
178 06-03-2019 14:45:00 13.9 C 61 % 6.51 C
179 06-03-2019 14:50:00 14.1 C 61 % 6.7 C
180 06-03-2019 14:55:00 14.2 C 60 % 6.56 C
181 06-03-2019 15:00:00 14.3 C 60 % 6.65 C
182 06-03-2019 15:05:00 14.4 C 61 % 6.98 C
183 06-03-2019 15:10:00 14.4 C 60 % 6.74 C
184 06-03-2019 15:15:00 14.5 C 60 % 6.84 C
185 06-03-2019 15:20:00 14.6 C 59 % 6.69 C
186 06-03-2019 15:25:00 14.6 C 58 % 6.44 C
187 06-03-2019 15:30:00 14.6 C 57 % 6.19 C
188 06-03-2019 15:35:00 14.6 C 59 % 6.69 C
189 06-03-2019 15:40:00 14.7 C 59 % 6.78 C
190 06-03-2019 15:45:00 14.7 C 58 % 6.53 C
191 06-03-2019 15:50:00 14.7 C 58 % 6.53 C
192 06-03-2019 15:55:00 14.7 C 56 % 6.02 C
193 06-03-2019 16:00:00 14.8 C 55 % 5.86 C
194 06-03-2019 16:05:00 15 C 54 % 5.78 C
195 06-03-2019 16:10:00 15.1 C 56 % 6.4 C
196 06-03-2019 16:15:00 15.2 C 56 % 6.49 C
197 06-03-2019 16:20:00 15.2 C 55 % 6.23 C
198 06-03-2019 16:25:00 15.3 C 55 % 6.32 C
199 06-03-2019 16:30:00 15.4 C 53 % 5.88 C
200 06-03-2019 16:35:00 15.4 C 54 % 6.15 C
Sensor: Nr:Datum:Temp:Feuchte:Taupunkt:
Aussen-T/F 201 06-03-2019 16:40:00 15.4 C 56 % 6.68 C
202 06-03-2019 16:45:00 15.4 C 62 % 8.16 C
203 06-03-2019 16:50:00 15.2 C 64 % 8.44 C
204 06-03-2019 16:55:00 14.9 C 69 % 9.27 C
205 06-03-2019 17:00:00 14.6 C 70 % 9.2 C
206 06-03-2019 17:05:00 14.3 C 71 % 9.12 C
207 06-03-2019 17:10:00 14.1 C 71 % 8.93 C
208 06-03-2019 17:15:00 13.9 C 72 % 8.94 C
209 06-03-2019 17:20:00 13.8 C 68 % 8 C
210 06-03-2019 17:25:00 13.7 C 67 % 7.69 C
211 06-03-2019 17:30:00 13.8 C 66 % 7.57 C
212 06-03-2019 17:35:00 13.8 C 66 % 7.57 C
213 06-03-2019 17:40:00 13.8 C 66 % 7.57 C
214 06-03-2019 17:45:00 13.8 C 67 % 7.79 C
215 06-03-2019 17:50:00 13.8 C 67 % 7.79 C
216 06-03-2019 17:55:00 13.8 C 68 % 8 C
217 06-03-2019 18:00:00 13.7 C 69 % 8.12 C
218 06-03-2019 18:05:00 13.6 C 70 % 8.24 C
219 06-03-2019 18:10:00 13.4 C 70 % 8.05 C
220 06-03-2019 18:15:00 13.3 C 70 % 7.95 C
221 06-03-2019 18:20:00 13.2 C 71 % 8.06 C
222 06-03-2019 18:25:00 13.1 C 73 % 8.38 C
223 06-03-2019 18:30:00 12.9 C 74 % 8.38 C
224 06-03-2019 18:35:00 12.7 C 74 % 8.19 C
225 06-03-2019 18:40:00 12.6 C 75 % 8.29 C
Sensor: Nr:Datum:Temp:Feuchte:Taupunkt:
Aussen-T/F 226 06-03-2019 18:45:00 12.6 C 74 % 8.09 C
227 06-03-2019 18:50:00 12.5 C 75 % 8.19 C
228 06-03-2019 18:55:00 12.5 C 76 % 8.39 C
229 06-03-2019 19:00:00 12.4 C 77 % 8.49 C
230 06-03-2019 19:05:00 12.2 C 79 % 8.67 C
231 06-03-2019 19:10:00 12 C 77 % 8.1 C
232 06-03-2019 19:15:00 12 C 79 % 8.48 C
233 06-03-2019 19:20:00 11.9 C 81 % 8.75 C
234 06-03-2019 19:25:00 11.7 C 82 % 8.73 C
235 06-03-2019 19:30:00 11.5 C 82 % 8.54 C
236 06-03-2019 19:35:00 11.4 C 83 % 8.62 C
237 06-03-2019 19:40:00 11.3 C 83 % 8.52 C
238 06-03-2019 19:45:00 11.3 C 84 % 8.7 C
239 06-03-2019 19:50:00 11.2 C 84 % 8.6 C
240 06-03-2019 19:55:00 11 C 84 % 8.4 C
241 06-03-2019 20:00:00 11 C 84 % 8.4 C
242 06-03-2019 20:05:00 10.9 C 84 % 8.31 C
243 06-03-2019 20:10:00 10.9 C 84 % 8.31 C
244 06-03-2019 20:15:00 10.8 C 85 % 8.38 C
245 06-03-2019 20:20:00 10.7 C 85 % 8.28 C
246 06-03-2019 20:25:00 10.6 C 85 % 8.19 C
247 06-03-2019 20:30:00 10.6 C 85 % 8.19 C
248 06-03-2019 20:35:00 10.6 C 85 % 8.19 C
249 06-03-2019 20:40:00 10.5 C 85 % 8.09 C
250 06-03-2019 20:45:00 10.4 C 85 % 7.99 C
Sensor: Nr:Datum:Temp:Feuchte:Taupunkt:
Aussen-T/F 251 06-03-2019 20:50:00 10.4 C 85 % 7.99 C
252 06-03-2019 20:55:00 10.4 C 86 % 8.16 C
253 06-03-2019 21:00:00 10.4 C 85 % 7.99 C
254 06-03-2019 21:05:00 10.6 C 84 % 8.01 C
255 06-03-2019 21:10:00 10.7 C 85 % 8.28 C
256 06-03-2019 21:15:00 10.7 C 84 % 8.11 C
257 06-03-2019 21:20:00 10.7 C 84 % 8.11 C
258 06-03-2019 21:25:00 10.7 C 84 % 8.11 C
259 06-03-2019 21:30:00 10.8 C 83 % 8.03 C
260 06-03-2019 21:35:00 10.8 C 84 % 8.21 C
261 06-03-2019 21:40:00 10.7 C 84 % 8.11 C
262 06-03-2019 21:45:00 10.7 C 84 % 8.11 C
263 06-03-2019 21:50:00 10.7 C 84 % 8.11 C
264 06-03-2019 21:55:00 10.6 C 84 % 8.01 C
265 06-03-2019 22:00:00 10.6 C 85 % 8.19 C
266 06-03-2019 22:05:00 10.6 C 84 % 8.01 C
267 06-03-2019 22:10:00 10.6 C 85 % 8.19 C
268 06-03-2019 22:15:00 10.6 C 84 % 8.01 C
269 06-03-2019 22:20:00 10.7 C 84 % 8.11 C
270 06-03-2019 22:25:00 10.7 C 84 % 8.11 C
271 06-03-2019 22:30:00 10.7 C 84 % 8.11 C
272 06-03-2019 22:35:00 10.7 C 84 % 8.11 C
273 06-03-2019 22:40:00 10.7 C 84 % 8.11 C
274 06-03-2019 22:45:00 10.7 C 84 % 8.11 C
275 06-03-2019 22:50:00 10.7 C 84 % 8.11 C
Sensor: Nr:Datum:Temp:Feuchte:Taupunkt:
Aussen-T/F 276 06-03-2019 22:55:00 10.7 C 84 % 8.11 C
277 06-03-2019 23:00:00 10.7 C 84 % 8.11 C
278 06-03-2019 23:05:00 10.8 C 84 % 8.21 C
279 06-03-2019 23:10:00 10.8 C 84 % 8.21 C
280 06-03-2019 23:15:00 10.8 C 83 % 8.03 C
281 06-03-2019 23:20:00 10.9 C 81 % 7.77 C
282 06-03-2019 23:25:00 11.1 C 81 % 7.97 C
283 06-03-2019 23:30:00 11.2 C 80 % 7.88 C
284 06-03-2019 23:35:00 11.4 C 80 % 8.08 C
285 06-03-2019 23:40:00 11.5 C 80 % 8.17 C
286 06-03-2019 23:45:00 11.6 C 79 % 8.09 C
287 06-03-2019 23:50:00 11.7 C 79 % 8.18 C
288 06-03-2019 23:55:00 11.6 C 81 % 8.45 C

Legende:
   Min
   Max


Maximal/Minimal-Werte vom 06.03.2019 - 06.03.2019

Sensor Min Max Avg
Temp
(Aussen-T/F)
5.3 °C
06-03-2019  07:25:00
15.4 °C
06-03-2019  16:30:00
10.02 °C
Feuchte
(Aussen-T/F)
53 %
06-03-2019  16:30:00
93 %
06-03-2019  07:55:00
78.98 %
Taupunkt
(Aussen-T/F)
3.89 C
06-03-2019  07:15:00
9.27 C
06-03-2019  16:55:00
6.3 C

Die Daten stammen von einer Davis Vantage Pro 2 Wetter-Station und werden unter Linux mit der Software wview2wettercgi und aufbereitet. Alle Angaben erfolgen ohne Gewähr für ihre Vollständigkeit oder Richtigkeit.
Kontakt: Rainer Krienke krienke@uni-koblenz.de . Meine Webseiten an der Uni Koblenz oder privat.
Version: $Revision: 0.78 $